Time;durP1;ratioP1;P1;durP2;ratioP2;P2;SDS_P1;SDS_P2;PMS_P1;PMS_P2;Temp;Humidity;BMP_temperature;BMP_pressure;BME280_temperature;BME280_humidity;BME280_pressure;Samples;Min_cycle;Max_cycle;Signal;HPM_P1;HPM_P2
2021/12/28 00:01:02;;;;;;;71.38;25.58;;;;;;;;;;5015716;28;20438;-83
2021/12/28 00:03:29;;;;;;;71.85;26.02;;;;;;;;;;5015834;28;20396;-83
2021/12/28 00:05:56;;;;;;;77.07;26.27;;;;;;;;;;5015729;28;20036;-84
2021/12/28 00:08:22;;;;;;;69.70;25.42;;;;;;;;;;5033336;28;20030;-84
2021/12/28 00:10:49;;;;;;;75.45;26.48;;;;;;;;;;5015711;28;20092;-83
2021/12/28 00:13:16;;;;;;;82.47;28.30;;;;;;;;;;5015823;28;20029;-84
2021/12/28 00:18:21;;;;;;;83.68;28.58;;;;;;;;;;5033452;28;20080;-84
2021/12/28 00:20:49;;;;;;;97.35;31.90;;;;;;;;;;5019338;28;20042;-83
2021/12/28 00:23:28;;;;;;;92.15;29.77;;;;;;;;;;5019455;28;20044;-84
2021/12/28 00:25:55;;;;;;;82.10;29.27;;;;;;;;;;5019288;28;20152;-84
2021/12/28 00:28:22;;;;;;;113.03;35.28;;;;;;;;;;5019309;28;20061;-84
2021/12/28 00:30:48;;;;;;;104.43;34.80;;;;;;;;;;5018911;28;20486;-84
2021/12/28 00:33:15;;;;;;;96.25;32.80;;;;;;;;;;5019016;28;20103;-84
2021/12/28 00:35:42;;;;;;;97.80;31.05;;;;;;;;;;5019102;28;20034;-83
2021/12/28 00:38:10;;;;;;;114.72;36.33;;;;;;;;;;5036772;28;20076;-83
2021/12/28 00:40:38;;;;;;;101.65;33.25;;;;;;;;;;5018908;28;20137;-83
2021/12/28 00:43:04;;;;;;;120.25;38.10;;;;;;;;;;5036891;28;20104;-84
2021/12/28 00:45:31;;;;;;;111.13;35.40;;;;;;;;;;5018912;28;20125;-84
2021/12/28 00:47:57;;;;;;;104.28;36.15;;;;;;;;;;5018800;28;20057;-83
2021/12/28 00:50:25;;;;;;;109.53;35.33;;;;;;;;;;5018801;28;20116;-84
2021/12/28 00:52:55;;;;;;;104.68;33.17;;;;;;;;;;5019262;28;20513;-83
2021/12/28 00:55:21;;;;;;;89.43;33.00;;;;;;;;;;5018755;28;20042;-84
2021/12/28 00:57:48;;;;;;;83.00;29.58;;;;;;;;;;5018661;28;20025;-83
2021/12/28 01:00:20;;;;;;;81.28;29.67;;;;;;;;;;5018572;28;20084;-84
2021/12/28 01:02:47;;;;;;;86.28;31.00;;;;;;;;;;5018516;28;20029;-84
2021/12/28 01:05:13;;;;;;;84.38;29.55;;;;;;;;;;5018362;28;20057;-83
2021/12/28 01:07:39;;;;;;;74.18;25.75;;;;;;;;;;5019102;28;20041;-83
2021/12/28 01:10:08;;;;;;;78.07;26.08;;;;;;;;;;5018390;28;20060;-83
2021/12/28 01:12:34;;;;;;;73.97;24.75;;;;;;;;;;5036382;28;20074;-83
2021/12/28 01:15:00;;;;;;;81.80;27.58;;;;;;;;;;5018347;28;20041;-83
2021/12/28 01:17:27;;;;;;;90.90;30.98;;;;;;;;;;5018212;28;20361;-83
2021/12/28 01:19:53;;;;;;;97.55;32.72;;;;;;;;;;5018210;28;20038;-83
2021/12/28 01:22:19;;;;;;;89.03;29.88;;;;;;;;;;5018260;28;20129;-83
2021/12/28 01:24:46;;;;;;;95.30;32.33;;;;;;;;;;5018368;28;20151;-83
2021/12/28 01:27:12;;;;;;;91.50;32.42;;;;;;;;;;5017947;28;20579;-83
2021/12/28 01:29:38;;;;;;;108.28;35.40;;;;;;;;;;5018008;28;20033;-83
2021/12/28 01:32:07;;;;;;;119.18;39.78;;;;;;;;;;5017444;28;20055;-83
2021/12/28 01:34:33;;;;;;;114.18;36.33;;;;;;;;;;5017897;28;20046;-83
2021/12/28 01:37:00;;;;;;;103.50;35.40;;;;;;;;;;5017894;28;20025;-83
2021/12/28 01:39:26;;;;;;;116.60;40.38;;;;;;;;;;5017788;28;20092;-83
2021/12/28 01:41:52;;;;;;;113.65;38.35;;;;;;;;;;5035664;28;20088;-83
2021/12/28 01:44:19;;;;;;;130.63;39.72;;;;;;;;;;5017703;28;20040;-84
2021/12/28 01:46:45;;;;;;;115.93;39.40;;;;;;;;;;5017754;28;20029;-83
2021/12/28 01:49:12;;;;;;;109.82;35.55;;;;;;;;;;5017534;28;20468;-83
2021/12/28 01:51:38;;;;;;;88.63;31.33;;;;;;;;;;5017510;28;20388;-83
2021/12/28 01:54:05;;;;;;;98.90;33.00;;;;;;;;;;5017555;28;20033;-82
2021/12/28 01:56:40;;;;;;;91.70;33.17;;;;;;;;;;5017497;28;20038;-83
2021/12/28 01:59:07;;;;;;;98.00;33.03;;;;;;;;;;5035208;28;20026;-83
2021/12/28 02:01:34;;;;;;;82.78;30.70;;;;;;;;;;5017418;28;20030;-83
2021/12/28 02:04:01;;;;;;;100.40;33.15;;;;;;;;;;5017662;28;20083;-83
2021/12/28 02:06:28;;;;;;;92.32;33.80;;;;;;;;;;5017245;28;20120;-83
2021/12/28 02:08:55;;;;;;;104.30;35.22;;;;;;;;;;5017199;28;20040;-83
2021/12/28 02:11:21;;;;;;;109.30;36.55;;;;;;;;;;5017233;28;20033;-83
2021/12/28 02:13:48;;;;;;;100.10;34.47;;;;;;;;;;5034816;28;20140;-83
2021/12/28 02:16:14;;;;;;;94.70;32.92;;;;;;;;;;5017201;28;20120;-83
2021/12/28 02:18:41;;;;;;;98.70;33.85;;;;;;;;;;5034948;28;20033;-82
2021/12/28 02:21:07;;;;;;;94.43;32.42;;;;;;;;;;5034691;28;20043;-83
2021/12/28 02:23:34;;;;;;;97.30;35.95;;;;;;;;;;5016975;28;20534;-83
2021/12/28 02:26:01;;;;;;;96.57;33.58;;;;;;;;;;5017065;28;20041;-83
2021/12/28 02:28:27;;;;;;;102.47;38.22;;;;;;;;;;5016903;28;20057;-83
2021/12/28 02:30:56;;;;;;;124.60;52.03;;;;;;;;;;5016694;28;20128;-83
2021/12/28 02:33:23;;;;;;;127.32;51.28;;;;;;;;;;5035025;28;20473;-83
2021/12/28 02:35:50;;;;;;;109.30;42.58;;;;;;;;;;5016856;28;20080;-83
2021/12/28 02:38:16;;;;;;;114.55;40.60;;;;;;;;;;5016732;28;20121;-83
2021/12/28 02:40:44;;;;;;;114.85;39.80;;;;;;;;;;5016547;28;20132;-82
2021/12/28 02:43:12;;;;;;;94.00;39.85;;;;;;;;;;5016232;28;20037;-83
2021/12/28 02:45:41;;;;;;;101.43;39.42;;;;;;;;;;5016635;28;20033;-83
2021/12/28 02:48:08;;;;;;;105.63;38.03;;;;;;;;;;5016608;28;20032;-83
2021/12/28 02:50:39;;;;;;;97.85;36.20;;;;;;;;;;5034145;28;20041;-83
2021/12/28 02:53:06;;;;;;;107.38;37.42;;;;;;;;;;5016474;28;20543;-82
2021/12/28 02:55:33;;;;;;;127.28;47.33;;;;;;;;;;5016403;28;20407;-83
2021/12/28 02:58:05;;;;;;;127.53;46.95;;;;;;;;;;5016375;28;20033;-82
2021/12/28 03:00:33;;;;;;;122.25;43.80;;;;;;;;;;5016344;28;20072;-83
2021/12/28 03:03:00;;;;;;;122.57;42.83;;;;;;;;;;5033915;28;20037;-83
2021/12/28 03:05:26;;;;;;;114.63;42.95;;;;;;;;;;5016290;28;20038;-83
2021/12/28 03:07:52;;;;;;;107.25;37.80;;;;;;;;;;5016117;28;20040;-83
2021/12/28 03:10:19;;;;;;;109.15;38.22;;;;;;;;;;5034472;28;20040;-83
2021/12/28 03:12:45;;;;;;;93.05;32.85;;;;;;;;;;5016133;28;20083;-83
2021/12/28 03:15:13;;;;;;;94.30;33.17;;;;;;;;;;5016501;28;20036;-83
2021/12/28 03:17:40;;;;;;;94.47;31.80;;;;;;;;;;5016148;28;20087;-82
2021/12/28 03:20:07;;;;;;;83.75;31.40;;;;;;;;;;5016146;28;20065;-83
2021/12/28 03:22:37;;;;;;;73.82;27.38;;;;;;;;;;5016056;28;20034;-83
2021/12/28 03:25:05;;;;;;;83.88;29.63;;;;;;;;;;5016044;28;20052;-83
2021/12/28 03:27:31;;;;;;;79.57;28.63;;;;;;;;;;5016168;28;20387;-83
2021/12/28 03:29:57;;;;;;;87.20;29.63;;;;;;;;;;5016034;28;20038;-83
2021/12/28 03:32:24;;;;;;;76.95;27.83;;;;;;;;;;5015719;28;20076;-83
2021/12/28 03:34:50;;;;;;;72.45;26.58;;;;;;;;;;5015957;28;20037;-83
2021/12/28 03:37:16;;;;;;;74.43;28.48;;;;;;;;;;5016012;28;20034;-82
2021/12/28 03:39:43;;;;;;;83.68;30.10;;;;;;;;;;5015832;28;20052;-83
2021/12/28 03:42:09;;;;;;;73.22;30.30;;;;;;;;;;5015995;28;20503;-83
2021/12/28 03:44:36;;;;;;;97.80;32.97;;;;;;;;;;5015622;28;20495;-83
2021/12/28 03:47:03;;;;;;;83.53;31.73;;;;;;;;;;5015917;28;20420;-83
2021/12/28 03:49:29;;;;;;;96.63;34.33;;;;;;;;;;5015813;28;20033;-83
2021/12/28 03:51:56;;;;;;;101.82;35.70;;;;;;;;;;5015901;28;20112;-83
2021/12/28 03:54:22;;;;;;;94.13;35.50;;;;;;;;;;5017698;28;20132;-83
2021/12/28 03:56:48;;;;;;;104.00;35.17;;;;;;;;;;5019788;28;20060;-83
2021/12/28 03:59:15;;;;;;;88.60;33.38;;;;;;;;;;5019643;28;20116;-83
2021/12/28 04:01:41;;;;;;;101.70;37.85;;;;;;;;;;5019764;28;20128;-83
2021/12/28 04:04:07;;;;;;;102.97;36.10;;;;;;;;;;5019539;28;20026;-83
2021/12/28 04:06:35;;;;;;;105.20;38.78;;;;;;;;;;5019410;28;20026;-83
2021/12/28 04:09:03;;;;;;;96.68;36.35;;;;;;;;;;5019337;28;20029;-83
2021/12/28 04:11:30;;;;;;;101.03;36.33;;;;;;;;;;5019429;28;20033;-83
2021/12/28 04:13:58;;;;;;;98.82;37.67;;;;;;;;;;5019434;28;20034;-83
2021/12/28 04:16:25;;;;;;;102.18;37.30;;;;;;;;;;5019102;28;20494;-83
2021/12/28 04:18:52;;;;;;;101.07;37.13;;;;;;;;;;5019354;28;20171;-83
2021/12/28 04:21:18;;;;;;;106.25;40.38;;;;;;;;;;5019572;28;20041;-83
2021/12/28 04:23:45;;;;;;;109.75;42.80;;;;;;;;;;5019189;28;20433;-83
2021/12/28 04:26:11;;;;;;;101.28;39.78;;;;;;;;;;5019193;28;20037;-83
2021/12/28 04:28:37;;;;;;;110.43;43.45;;;;;;;;;;5037268;28;20383;-83
2021/12/28 04:31:04;;;;;;;108.15;42.20;;;;;;;;;;5018963;28;20033;-83
2021/12/28 04:33:30;;;;;;;99.90;38.42;;;;;;;;;;5018851;28;20068;-83
2021/12/28 04:35:57;;;;;;;100.00;40.65;;;;;;;;;;5019061;28;20040;-83
2021/12/28 04:38:23;;;;;;;105.50;42.15;;;;;;;;;;5036933;28;20034;-83
2021/12/28 04:40:50;;;;;;;102.30;42.13;;;;;;;;;;5018950;28;20038;-83
2021/12/28 04:43:16;;;;;;;109.13;42.10;;;;;;;;;;5018948;28;20037;-83
2021/12/28 04:45:42;;;;;;;110.38;42.83;;;;;;;;;;5036403;28;20033;-83
2021/12/28 04:48:09;;;;;;;102.18;39.35;;;;;;;;;;5018697;28;20396;-83
2021/12/28 04:50:41;;;;;;;107.20;40.38;;;;;;;;;;5018797;28;20038;-83
2021/12/28 04:53:10;;;;;;;104.35;39.47;;;;;;;;;;5018774;28;20099;-83
2021/12/28 04:55:37;;;;;;;89.93;34.00;;;;;;;;;;5018784;28;20032;-83
2021/12/28 04:58:04;;;;;;;99.80;36.90;;;;;;;;;;5018688;28;20029;-82
2021/12/28 05:00:30;;;;;;;109.45;39.83;;;;;;;;;;5018577;28;20175;-83
2021/12/28 05:02:57;;;;;;;102.20;39.05;;;;;;;;;;5018673;28;20546;-83
2021/12/28 05:05:23;;;;;;;97.53;36.10;;;;;;;;;;5035822;28;20468;-83
2021/12/28 05:07:50;;;;;;;105.32;35.55;;;;;;;;;;5018448;28;20030;-83
2021/12/28 05:10:17;;;;;;;101.28;35.10;;;;;;;;;;5018367;28;20384;-83
2021/12/28 05:12:44;;;;;;;96.82;37.35;;;;;;;;;;5018324;28;20026;-83
2021/12/28 05:15:10;;;;;;;108.70;38.38;;;;;;;;;;5018087;28;20560;-83
2021/12/28 05:17:37;;;;;;;105.13;38.28;;;;;;;;;;5018317;28;20061;-83
2021/12/28 05:20:04;;;;;;;111.32;40.50;;;;;;;;;;5018247;28;20128;-83
2021/12/28 05:22:30;;;;;;;98.20;38.83;;;;;;;;;;5018289;28;20034;-83
2021/12/28 05:24:57;;;;;;;108.28;40.80;;;;;;;;;;5035718;28;20086;-83
2021/12/28 05:27:23;;;;;;;107.05;37.65;;;;;;;;;;5018167;28;20025;-83
2021/12/28 05:29:49;;;;;;;91.82;37.17;;;;;;;;;;5017868;28;20037;-83
2021/12/28 05:32:16;;;;;;;99.03;37.72;;;;;;;;;;5017733;28;20049;-83
2021/12/28 05:34:43;;;;;;;95.75;38.35;;;;;;;;;;5018054;28;20037;-83
2021/12/28 05:37:09;;;;;;;94.82;36.97;;;;;;;;;;5035833;28;20067;-83
2021/12/28 05:39:36;;;;;;;98.28;36.00;;;;;;;;;;5017827;28;20038;-84
2021/12/28 05:42:03;;;;;;;109.10;43.50;;;;;;;;;;5017904;28;20475;-84
2021/12/28 05:44:30;;;;;;;101.80;38.67;;;;;;;;;;5017794;28;20038;-84
2021/12/28 05:46:56;;;;;;;108.20;40.47;;;;;;;;;;5017648;28;20034;-84
2021/12/28 05:49:25;;;;;;;98.45;38.00;;;;;;;;;;5017763;28;20044;-84
2021/12/28 05:51:51;;;;;;;97.18;38.28;;;;;;;;;;5017736;28;20033;-84
2021/12/28 05:54:18;;;;;;;100.40;38.58;;;;;;;;;;5017835;28;20127;-84
2021/12/28 05:56:45;;;;;;;93.40;37.92;;;;;;;;;;5017530;28;20476;-84
2021/12/28 05:59:11;;;;;;;93.88;38.13;;;;;;;;;;5035257;28;20051;-85
2021/12/28 06:01:38;;;;;;;93.65;37.75;;;;;;;;;;5017355;28;20037;-84
2021/12/28 06:04:04;;;;;;;96.25;38.63;;;;;;;;;;5017533;28;20026;-84
2021/12/28 06:06:31;;;;;;;89.15;36.63;;;;;;;;;;5017322;28;20029;-85
2021/12/28 06:08:57;;;;;;;94.97;39.67;;;;;;;;;;5017229;28;20041;-84
2021/12/28 06:11:23;;;;;;;98.55;39.47;;;;;;;;;;5017327;28;20476;-84
2021/12/28 06:13:50;;;;;;;96.00;39.35;;;;;;;;;;5017164;28;20029;-84
2021/12/28 06:16:16;;;;;;;95.40;40.17;;;;;;;;;;5016467;28;20045;-84
2021/12/28 06:18:42;;;;;;;97.43;38.70;;;;;;;;;;5034915;28;20096;-84
2021/12/28 06:21:09;;;;;;;95.28;39.65;;;;;;;;;;5034833;28;20502;-85
2021/12/28 06:23:35;;;;;;;89.95;38.22;;;;;;;;;;5017184;28;20384;-85
2021/12/28 06:26:02;;;;;;;83.85;35.85;;;;;;;;;;5017409;28;20128;-84
2021/12/28 06:28:28;;;;;;;90.03;39.35;;;;;;;;;;5017067;28;20034;-84
2021/12/28 06:30:56;;;;;;;94.10;38.08;;;;;;;;;;5034483;28;20041;-84
2021/12/28 06:33:22;;;;;;;89.32;38.35;;;;;;;;;;5034650;28;20104;-84
2021/12/28 06:35:50;;;;;;;85.82;36.78;;;;;;;;;;5016992;28;20117;-84
2021/12/28 06:38:17;;;;;;;65.50;28.67;;;;;;;;;;5016783;28;20030;-85
2021/12/28 06:40:44;;;;;;;66.32;29.88;;;;;;;;;;5016770;28;20438;-85
2021/12/28 06:43:10;;;;;;;70.35;30.23;;;;;;;;;;5016873;28;20029;-84
2021/12/28 06:45:36;;;;;;;63.70;29.33;;;;;;;;;;5016708;28;20030;-84
2021/12/28 06:48:03;;;;;;;74.13;30.58;;;;;;;;;;5016734;28;20029;-84
2021/12/28 06:50:29;;;;;;;66.10;28.58;;;;;;;;;;5016727;28;20029;-84
2021/12/28 06:52:56;;;;;;;74.90;32.60;;;;;;;;;;5016686;28;20059;-84
2021/12/28 06:55:22;;;;;;;65.97;29.08;;;;;;;;;;5034323;28;20065;-84
2021/12/28 06:57:49;;;;;;;74.65;31.33;;;;;;;;;;5016601;28;20056;-84
2021/12/28 07:00:16;;;;;;;65.22;29.23;;;;;;;;;;5016550;28;20124;-84
2021/12/28 07:02:43;;;;;;;83.53;36.85;;;;;;;;;;5016363;28;20034;-84
2021/12/28 07:05:10;;;;;;;91.32;37.53;;;;;;;;;;5016554;28;20025;-84
2021/12/28 07:07:38;;;;;;;94.55;39.10;;;;;;;;;;5015945;28;20096;-84
2021/12/28 07:10:06;;;;;;;100.57;40.97;;;;;;;;;;5016358;28;20033;-83
2021/12/28 07:12:33;;;;;;;94.85;41.00;;;;;;;;;;5016223;28;20056;-84
2021/12/28 07:14:59;;;;;;;88.35;38.13;;;;;;;;;;5016389;28;20120;-83
2021/12/28 07:17:29;;;;;;;97.70;41.95;;;;;;;;;;5016204;28;20037;-83
2021/12/28 07:19:56;;;;;;;99.18;40.70;;;;;;;;;;5016016;28;20515;-83
2021/12/28 07:22:22;;;;;;;95.05;40.95;;;;;;;;;;5016221;28;20152;-83
2021/12/28 07:24:48;;;;;;;89.80;39.08;;;;;;;;;;5016181;28;20033;-84
2021/12/28 07:27:15;;;;;;;102.97;42.67;;;;;;;;;;5016029;28;20068;-84
2021/12/28 07:29:41;;;;;;;99.68;41.75;;;;;;;;;;5016055;28;20033;-84
2021/12/28 07:32:08;;;;;;;115.32;44.95;;;;;;;;;;5015898;28;20052;-83
2021/12/28 07:34:35;;;;;;;100.50;44.58;;;;;;;;;;5016116;28;20039;-83
2021/12/28 07:37:02;;;;;;;114.45;45.70;;;;;;;;;;5016113;28;20033;-84
2021/12/28 07:39:28;;;;;;;112.22;41.17;;;;;;;;;;5016124;28;20147;-84
2021/12/28 07:41:54;;;;;;;93.18;37.88;;;;;;;;;;5015996;28;20029;-85
2021/12/28 07:44:21;;;;;;;91.38;37.90;;;;;;;;;;5033918;28;20029;-85
2021/12/28 07:46:48;;;;;;;94.68;36.33;;;;;;;;;;5016007;28;20036;-84
2021/12/28 07:49:14;;;;;;;91.75;38.97;;;;;;;;;;5015747;28;20029;-84
2021/12/28 07:51:40;;;;;;;94.80;38.47;;;;;;;;;;5015941;28;20029;-84
2021/12/28 07:54:07;;;;;;;99.90;42.25;;;;;;;;;;5015866;28;20384;-84
2021/12/28 07:56:33;;;;;;;96.93;40.85;;;;;;;;;;5033922;28;20076;-83
2021/12/28 07:58:59;;;;;;;104.72;41.45;;;;;;;;;;5015895;28;20388;-84
2021/12/28 08:01:25;;;;;;;101.97;42.70;;;;;;;;;;5015739;28;20041;-83
2021/12/28 08:03:52;;;;;;;103.80;42.35;;;;;;;;;;5015708;28;20480;-84
2021/12/28 08:06:18;;;;;;;107.28;43.75;;;;;;;;;;5015584;28;20033;-84
2021/12/28 08:08:44;;;;;;;113.10;45.88;;;;;;;;;;5015676;28;20435;-83
2021/12/28 08:11:11;;;;;;;118.97;48.38;;;;;;;;;;5015639;28;20064;-83
2021/12/28 08:13:37;;;;;;;103.57;42.72;;;;;;;;;;5033493;28;20077;-83
2021/12/28 08:16:03;;;;;;;102.20;44.55;;;;;;;;;;5033438;28;20383;-83
2021/12/28 08:18:30;;;;;;;116.78;47.97;;;;;;;;;;5015637;28;20037;-84
2021/12/28 08:20:56;;;;;;;123.95;48.08;;;;;;;;;;5015426;28;20038;-83
2021/12/28 08:23:22;;;;;;;116.35;46.53;;;;;;;;;;5015596;28;20057;-84
2021/12/28 08:25:49;;;;;;;115.43;47.17;;;;;;;;;;5015543;28;20026;-84
2021/12/28 08:28:15;;;;;;;111.95;46.88;;;;;;;;;;5015546;28;20029;-84
2021/12/28 08:30:42;;;;;;;115.43;45.92;;;;;;;;;;5015402;28;20037;-84
2021/12/28 08:33:09;;;;;;;110.05;45.80;;;;;;;;;;5032840;28;20054;-83
2021/12/28 08:35:39;;;;;;;111.15;47.60;;;;;;;;;;5015474;28;20030;-84
2021/12/28 08:38:05;;;;;;;122.53;50.58;;;;;;;;;;5033337;28;20112;-83
2021/12/28 08:40:32;;;;;;;155.07;63.47;;;;;;;;;;5017115;28;20492;-83
2021/12/28 08:42:58;;;;;;;172.40;66.10;;;;;;;;;;5036696;28;20034;-83
2021/12/28 08:45:24;;;;;;;161.82;66.43;;;;;;;;;;5018747;28;20377;-83
2021/12/28 08:47:51;;;;;;;164.73;69.65;;;;;;;;;;5018921;28;20049;-82
2021/12/28 08:50:18;;;;;;;156.30;65.07;;;;;;;;;;5036856;28;20109;-82
2021/12/28 08:52:45;;;;;;;163.48;66.03;;;;;;;;;;5018849;28;20526;-82
2021/12/28 08:55:11;;;;;;;174.82;70.82;;;;;;;;;;5018666;28;20546;-82
2021/12/28 08:57:38;;;;;;;168.63;71.25;;;;;;;;;;5018812;28;20038;-82
2021/12/28 09:00:09;;;;;;;172.25;70.03;;;;;;;;;;5018484;28;20125;-82
2021/12/28 09:02:36;;;;;;;171.57;69.15;;;;;;;;;;5036748;28;20030;-82
2021/12/28 09:05:02;;;;;;;148.75;62.78;;;;;;;;;;5036739;28;20037;-82
2021/12/28 09:07:29;;;;;;;153.32;65.05;;;;;;;;;;5018398;28;20057;-82
2021/12/28 09:09:55;;;;;;;162.52;65.65;;;;;;;;;;5018455;28;20029;-82
2021/12/28 09:12:21;;;;;;;153.23;62.83;;;;;;;;;;5036098;28;20033;-82
2021/12/28 09:14:48;;;;;;;161.80;63.58;;;;;;;;;;5018449;28;20472;-82
2021/12/28 09:17:15;;;;;;;153.63;64.57;;;;;;;;;;5018271;28;20034;-83
2021/12/28 09:19:41;;;;;;;170.30;65.50;;;;;;;;;;5018195;28;20064;-82
2021/12/28 09:22:08;;;;;;;170.38;69.10;;;;;;;;;;5018048;28;20075;-82
2021/12/28 09:24:34;;;;;;;180.23;70.68;;;;;;;;;;5018181;28;20124;-83
2021/12/28 09:27:01;;;;;;;204.18;78.90;;;;;;;;;;5018102;28;20033;-83
2021/12/28 09:29:29;;;;;;;202.55;79.72;;;;;;;;;;5035899;28;20112;-82
2021/12/28 09:31:57;;;;;;;218.68;89.97;;;;;;;;;;5017691;28;20516;-82
2021/12/28 09:34:23;;;;;;;238.25;96.85;;;;;;;;;;5017950;28;20404;-82
2021/12/28 09:36:52;;;;;;;237.65;99.80;;;;;;;;;;5035428;28;20057;-82
2021/12/28 09:39:22;;;;;;;259.65;110.00;;;;;;;;;;5017775;28;20030;-82
2021/12/28 09:41:56;;;;;;;284.33;117.72;;;;;;;;;;5017847;28;20084;-82
2021/12/28 09:44:23;;;;;;;278.92;120.28;;;;;;;;;;5017798;28;20030;-82
2021/12/28 09:46:49;;;;;;;274.55;120.10;;;;;;;;;;5017644;28;20029;-82
2021/12/28 09:49:15;;;;;;;290.95;118.00;;;;;;;;;;5035389;28;20105;-82
2021/12/28 09:51:41;;;;;;;274.90;117.95;;;;;;;;;;5017491;28;20484;-82
2021/12/28 09:54:08;;;;;;;288.30;119.28;;;;;;;;;;5017496;28;20125;-82
2021/12/28 09:56:36;;;;;;;286.90;119.65;;;;;;;;;;5017543;28;20030;-82
2021/12/28 09:59:03;;;;;;;261.05;116.15;;;;;;;;;;5017982;28;20057;-82
2021/12/28 10:01:29;;;;;;;271.55;117.22;;;;;;;;;;5017437;28;20037;-82
2021/12/28 10:03:57;;;;;;;303.92;125.30;;;;;;;;;;5017401;28;20037;-82
2021/12/28 10:06:25;;;;;;;279.13;118.97;;;;;;;;;;5017263;28;20033;-82
2021/12/28 10:09:23;;;;;;;276.20;116.80;;;;;;;;;;5017281;28;20087;-82
2021/12/28 10:11:55;;;;;;;279.48;116.22;;;;;;;;;;5001842;28;20030;-82
2021/12/28 10:14:28;;;;;;;295.58;122.18;;;;;;;;;;5017442;28;20040;-82
2021/12/28 10:16:54;;;;;;;295.88;125.20;;;;;;;;;;5034778;28;20075;-83
2021/12/28 10:19:31;;;;;;;300.45;126.75;;;;;;;;;;5017065;28;20038;-82
2021/12/28 10:21:58;;;;;;;320.27;131.25;;;;;;;;;;5016968;28;20029;-82
2021/12/28 10:24:35;;;;;;;325.40;130.05;;;;;;;;;;5017066;28;20033;-82
2021/12/28 10:27:17;;;;;;;342.42;136.65;;;;;;;;;;5017045;28;20122;-82
2021/12/28 10:29:43;;;;;;;309.73;130.77;;;;;;;;;;5016914;28;20036;-82
2021/12/28 10:32:36;;;;;;;312.00;133.27;;;;;;;;;;5016745;28;20056;-82
2021/12/28 10:35:06;;;;;;;307.05;129.55;;;;;;;;;;5031682;28;20049;-82
2021/12/28 10:37:34;;;;;;;320.08;129.93;;;;;;;;;;5034617;28;20029;-82
2021/12/28 10:40:01;;;;;;;334.10;137.20;;;;;;;;;;5016662;28;20061;-82
2021/12/28 10:42:42;;;;;;;333.92;140.45;;;;;;;;;;5016751;28;20033;-82
2021/12/28 10:45:10;;;;;;;299.65;129.48;;;;;;;;;;5016491;28;20033;-82
2021/12/28 10:47:36;;;;;;;299.35;127.38;;;;;;;;;;5016650;28;20037;-82
2021/12/28 10:50:23;;;;;;;320.42;133.35;;;;;;;;;;5016629;28;20034;-82
2021/12/28 10:52:52;;;;;;;329.25;134.40;;;;;;;;;;5016229;28;20484;-82
2021/12/28 10:55:21;;;;;;;333.83;135.57;;;;;;;;;;5016458;28;20388;-82
2021/12/28 10:57:47;;;;;;;340.60;137.80;;;;;;;;;;5016458;28;20025;-82
2021/12/28 11:00:25;;;;;;;314.33;129.52;;;;;;;;;;5016410;28;20387;-82
2021/12/28 11:03:12;;;;;;;315.27;134.98;;;;;;;;;;5015904;28;20041;-82
2021/12/28 11:05:38;;;;;;;322.95;128.57;;;;;;;;;;5006067;28;20045;-82
2021/12/28 11:08:07;;;;;;;305.40;131.40;;;;;;;;;;5016079;28;20392;-82
2021/12/28 11:10:34;;;;;;;377.48;148.93;;;;;;;;;;5016262;28;20034;-82
2021/12/28 11:13:00;;;;;;;330.52;138.90;;;;;;;;;;5016266;28;20058;-82
2021/12/28 11:15:27;;;;;;;387.50;154.75;;;;;;;;;;5016076;28;20038;-82
2021/12/28 11:17:53;;;;;;;364.42;155.88;;;;;;;;;;5033907;28;20051;-82
2021/12/28 11:20:30;;;;;;;377.83;155.65;;;;;;;;;;5016222;28;20044;-82
2021/12/28 11:23:10;;;;;;;399.25;165.35;;;;;;;;;;5016044;28;20041;-82
2021/12/28 11:25:37;;;;;;;419.77;170.98;;;;;;;;;;5016015;28;20484;-82
2021/12/28 11:28:16;;;;;;;410.05;167.20;;;;;;;;;;5015938;28;20483;-81
2021/12/28 11:31:01;;;;;;;426.80;174.05;;;;;;;;;;5033655;28;20112;-82
2021/12/28 11:33:27;;;;;;;378.13;160.57;;;;;;;;;;5015749;28;20049;-82
2021/12/28 11:35:54;;;;;;;452.65;182.15;;;;;;;;;;5016071;28;20061;-81
2021/12/28 11:38:21;;;;;;;441.90;185.98;;;;;;;;;;5033460;28;20021;-82
2021/12/28 11:40:47;;;;;;;442.40;183.65;;;;;;;;;;5015870;28;20033;-82
2021/12/28 11:43:13;;;;;;;445.33;190.10;;;;;;;;;;5015815;28;20124;-81
2021/12/28 11:45:40;;;;;;;461.60;200.15;;;;;;;;;;5015572;28;20499;-82
2021/12/28 11:48:06;;;;;;;464.45;196.63;;;;;;;;;;5015781;28;20540;-81
2021/12/28 11:50:33;;;;;;;454.23;192.40;;;;;;;;;;5033407;28;20388;-81
2021/12/28 11:52:59;;;;;;;456.80;193.82;;;;;;;;;;5015687;28;20087;-81
2021/12/28 11:55:25;;;;;;;461.55;192.77;;;;;;;;;;5033531;28;20036;-81
2021/12/28 11:57:53;;;;;;;465.10;190.38;;;;;;;;;;5015698;28;20056;-81
2021/12/28 12:00:21;;;;;;;426.88;179.63;;;;;;;;;;5015668;28;20124;-81
2021/12/28 12:02:49;;;;;;;433.80;175.68;;;;;;;;;;5015750;28;20029;-82
2021/12/28 12:05:15;;;;;;;427.73;175.18;;;;;;;;;;5015738;28;20029;-82
2021/12/28 12:07:42;;;;;;;459.17;187.27;;;;;;;;;;5015661;28;20472;-82
2021/12/28 12:10:10;;;;;;;470.77;195.60;;;;;;;;;;5015629;28;20044;-81
2021/12/28 12:12:47;;;;;;;459.10;196.75;;;;;;;;;;5015650;28;20041;-82
2021/12/28 12:15:15;;;;;;;445.65;195.73;;;;;;;;;;5017198;28;20038;-82
2021/12/28 12:17:45;;;;;;;457.02;196.32;;;;;;;;;;5019380;28;20033;-82
2021/12/28 12:20:18;;;;;;;440.58;190.10;;;;;;;;;;5037089;28;20492;-81
2021/12/28 12:22:49;;;;;;;490.45;204.60;;;;;;;;;;5019317;28;20427;-82
2021/12/28 12:25:17;;;;;;;479.30;214.57;;;;;;;;;;5019678;28;20029;-81
2021/12/28 12:27:57;;;;;;;491.10;213.82;;;;;;;;;;5019257;28;20185;-82
2021/12/28 12:30:24;;;;;;;486.48;205.10;;;;;;;;;;5036856;28;20112;-82
2021/12/28 12:35:45;;;;;;;477.90;213.13;;;;;;;;;;5036890;28;20068;-82
2021/12/28 12:38:15;;;;;;;455.48;189.68;;;;;;;;;;5011136;28;20041;-82
2021/12/28 12:40:54;;;;;;;468.23;197.48;;;;;;;;;;5018802;28;20408;-82
2021/12/28 12:43:21;;;;;;;413.63;171.13;;;;;;;;;;5018920;28;20037;-81
2021/12/28 12:45:57;;;;;;;436.42;175.95;;;;;;;;;;5036709;28;20096;-82
2021/12/28 12:48:39;;;;;;;469.52;197.65;;;;;;;;;;5036650;28;20476;-82
2021/12/28 12:51:20;;;;;;;471.42;199.85;;;;;;;;;;5018705;28;20037;-83
2021/12/28 12:53:48;;;;;;;497.30;214.10;;;;;;;;;;5018759;28;20040;-81
2021/12/28 12:56:16;;;;;;;506.38;224.93;;;;;;;;;;5018699;28;20038;-82
2021/12/28 12:58:45;;;;;;;520.58;221.25;;;;;;;;;;5036405;28;20040;-81
2021/12/28 13:01:38;;;;;;;468.80;201.10;;;;;;;;;;5018644;28;20059;-81
2021/12/28 13:04:24;;;;;;;528.03;224.25;;;;;;;;;;4995929;28;20096;-82
2021/12/28 13:07:05;;;;;;;515.03;224.75;;;;;;;;;;5018234;28;20491;-82
2021/12/28 13:09:32;;;;;;;514.95;228.43;;;;;;;;;;5036493;28;20116;-81
2021/12/28 13:12:01;;;;;;;489.50;218.80;;;;;;;;;;5018440;28;20036;-81
2021/12/28 13:14:28;;;;;;;468.65;206.55;;;;;;;;;;5018352;28;20034;-81
2021/12/28 13:17:02;;;;;;;485.95;210.20;;;;;;;;;;5036139;28;20431;-82
2021/12/28 13:19:28;;;;;;;449.27;199.27;;;;;;;;;;5018132;28;20026;-81
2021/12/28 13:22:03;;;;;;;480.02;217.70;;;;;;;;;;5018246;28;20061;-81
2021/12/28 13:24:29;;;;;;;482.92;210.13;;;;;;;;;;5035893;28;20029;-82
2021/12/28 13:27:00;;;;;;;481.85;214.98;;;;;;;;;;5017712;28;20423;-81
2021/12/28 13:29:27;;;;;;;498.27;214.85;;;;;;;;;;5017823;28;20483;-81
2021/12/28 13:31:54;;;;;;;452.40;190.00;;;;;;;;;;5035296;28;20068;-81
2021/12/28 13:34:21;;;;;;;405.67;181.07;;;;;;;;;;5017986;28;20037;-81
2021/12/28 13:36:50;;;;;;;466.77;200.88;;;;;;;;;;5017868;28;20057;-81
2021/12/28 13:39:17;;;;;;;472.90;194.35;;;;;;;;;;5017643;28;20384;-81
2021/12/28 13:41:54;;;;;;;460.00;188.88;;;;;;;;;;5017696;28;20045;-81
2021/12/28 13:44:20;;;;;;;469.52;192.07;;;;;;;;;;5017525;28;20065;-82
2021/12/28 13:46:47;;;;;;;549.42;220.77;;;;;;;;;;5035458;28;20051;-81
2021/12/28 13:49:16;;;;;;;481.73;199.55;;;;;;;;;;5035491;28;20419;-81
2021/12/28 13:51:43;;;;;;;485.48;195.68;;;;;;;;;;5035296;28;20103;-82
2021/12/28 13:54:09;;;;;;;452.52;182.02;;;;;;;;;;5017603;28;20123;-81
2021/12/28 13:56:37;;;;;;;433.75;175.55;;;;;;;;;;5035386;28;20024;-81
2021/12/28 13:59:04;;;;;;;451.75;176.73;;;;;;;;;;5017454;28;20033;-81
2021/12/28 14:01:32;;;;;;;430.10;170.38;;;;;;;;;;5017396;28;20033;-81
2021/12/28 14:04:03;;;;;;;417.27;161.90;;;;;;;;;;5035045;28;20029;-81
2021/12/28 14:06:31;;;;;;;416.52;167.40;;;;;;;;;;5017193;28;20033;-81
2021/12/28 14:09:01;;;;;;;395.45;153.60;;;;;;;;;;5034878;28;20087;-81
2021/12/28 14:11:31;;;;;;;385.70;155.40;;;;;;;;;;5017192;28;20087;-81
2021/12/28 14:13:58;;;;;;;401.85;157.48;;;;;;;;;;5017161;28;20033;-81